createdAt,value
2017-11-09T00:00:06.094Z,104.33
2017-11-09T00:02:33.140Z,94.17
2017-11-09T00:08:04.987Z,103.53
2017-11-09T00:10:31.115Z,95.27
2017-11-09T00:12:57.187Z,89.33
2017-11-09T00:15:23.266Z,97.03
2017-11-09T00:17:49.399Z,96.87
2017-11-09T00:20:15.762Z,99.20
2017-11-09T00:22:42.654Z,82.57
2017-11-09T00:25:08.967Z,85.87
2017-11-09T00:27:35.530Z,90.80
2017-11-09T00:30:01.858Z,88.30
2017-11-09T00:32:28.184Z,95.90
2017-11-09T00:34:54.570Z,86.27
2017-11-09T00:37:20.847Z,88.67
2017-11-09T00:39:48.814Z,87.07
2017-11-09T00:42:15.147Z,88.43
2017-11-09T00:44:42.228Z,105.70
2017-11-09T00:47:08.483Z,92.77
2017-11-09T00:49:34.767Z,98.93
2017-11-09T00:52:01.145Z,91.40
2017-11-09T00:54:27.466Z,94.97
2017-11-09T00:56:53.818Z,94.93
2017-11-09T00:59:20.119Z,101.80
2017-11-09T01:01:47.176Z,88.07
2017-11-09T01:04:15.849Z,101.57
2017-11-09T01:06:42.144Z,90.27
2017-11-09T01:09:10.331Z,82.17
2017-11-09T01:11:36.711Z,86.70
2017-11-09T01:14:03.017Z,86.73
2017-11-09T01:16:29.380Z,79.23
2017-11-09T01:18:55.967Z,94.73
2017-11-09T01:21:22.217Z,90.03
2017-11-09T01:23:52.231Z,94.23
2017-11-09T01:26:18.537Z,94.43
2017-11-09T01:28:44.818Z,75.60
2017-11-09T01:31:11.070Z,87.47
2017-11-09T01:33:37.392Z,88.60
2017-11-09T01:36:03.674Z,95.97
2017-11-09T01:38:29.999Z,109.77
2017-11-09T01:40:57.057Z,113.77
2017-11-09T01:43:23.357Z,106.40
2017-11-09T01:45:50.615Z,105.60
2017-11-09T01:48:17.622Z,104.20
2017-11-09T01:50:43.887Z,103.37
2017-11-09T01:53:10.225Z,110.57
2017-11-09T01:55:36.538Z,112.23
2017-11-09T01:58:02.855Z,106.37
2017-11-09T02:00:29.128Z,101.03
2017-11-09T02:02:56.210Z,83.37
2017-11-09T02:05:23.227Z,102.03
2017-11-09T02:07:50.238Z,105.83
2017-11-09T02:10:18.186Z,95.53
2017-11-09T02:12:44.467Z,97.33
2017-11-09T02:15:10.968Z,97.47
2017-11-09T02:17:37.251Z,101.77
2017-11-09T02:20:03.523Z,104.70
2017-11-09T02:22:30.599Z,103.33
2017-11-09T02:24:56.882Z,95.40
2017-11-09T02:27:23.181Z,96.40
2017-11-09T02:29:53.779Z,100.43
2017-11-09T02:32:20.066Z,95.63
2017-11-09T02:34:47.281Z,102.87
2017-11-09T02:37:16.421Z,97.50
2017-11-09T02:39:42.707Z,102.07
2017-11-09T02:42:09.799Z,94.10
2017-11-09T02:44:36.087Z,107.67
2017-11-09T02:47:02.458Z,118.10
2017-11-09T02:49:28.738Z,109.35
2017-11-09T02:51:55.042Z,108.03
2017-11-09T02:54:31.672Z,120.93
2017-11-09T02:56:57.975Z,118.07
2017-11-09T02:59:29.047Z,120.33
2017-11-09T03:01:55.322Z,106.80
2017-11-09T03:04:23.700Z,109.07
2017-11-09T03:06:50.032Z,105.47
2017-11-09T03:09:17.974Z,97.20
2017-11-09T03:11:44.279Z,99.40
2017-11-09T03:14:11.125Z,105.20
2017-11-09T03:16:37.405Z,101.93
2017-11-09T03:19:03.863Z,92.87
2017-11-09T03:21:30.220Z,95.63
2017-11-09T03:23:57.277Z,96.17
2017-11-09T03:26:23.519Z,104.70
2017-11-09T03:28:49.950Z,106.90
2017-11-09T03:31:16.220Z,93.27
2017-11-09T03:33:42.487Z,94.63
2017-11-09T03:36:08.803Z,104.13
2017-11-09T03:38:35.219Z,102.43
2017-11-09T03:41:02.295Z,91.03
2017-11-09T03:43:28.594Z,95.17
2017-11-09T03:45:55.594Z,109.63
2017-11-09T03:48:21.850Z,95.73
2017-11-09T03:50:48.139Z,92.57
2017-11-09T03:53:17.703Z,103.03
2017-11-09T03:55:44.001Z,105.57
2017-11-09T03:58:14.269Z,96.87
2017-11-09T04:00:40.839Z,109.27
2017-11-09T04:03:07.890Z,102.47
2017-11-09T04:05:34.181Z,105.80
2017-11-09T04:08:01.260Z,94.57
2017-11-09T04:10:27.455Z,100.33
2017-11-09T04:12:53.763Z,110.93
2017-11-09T04:15:20.083Z,119.33
2017-11-09T04:17:46.399Z,110.93
2017-11-09T04:20:12.711Z,98.57
2017-11-09T04:22:43.075Z,108.07
2017-11-09T04:25:09.508Z,95.43
2017-11-09T04:27:39.750Z,101.33
2017-11-09T04:30:06.609Z,105.80
2017-11-09T04:32:32.671Z,96.10
2017-11-09T04:34:58.743Z,103.10
2017-11-09T04:37:27.884Z,99.57
2017-11-09T04:39:54.156Z,101.23
2017-11-09T04:44:51.835Z,104.87
2017-11-09T04:47:18.093Z,99.70
2017-11-09T04:49:44.364Z,101.87
2017-11-09T04:52:10.663Z,99.63
2017-11-09T04:54:36.946Z,109.43
2017-11-09T04:57:03.244Z,99.17
2017-11-09T04:59:30.176Z,97.87
2017-11-09T05:01:56.447Z,104.63
2017-11-09T05:04:22.731Z,108.83
2017-11-09T05:06:49.755Z,107.67
2017-11-09T05:09:16.032Z,97.50
2017-11-09T05:11:42.320Z,101.37
2017-11-09T05:14:09.418Z,95.50
2017-11-09T05:16:35.691Z,95.30
2017-11-09T05:19:02.074Z,97.40
2017-11-09T05:21:28.452Z,96.57
2017-11-09T05:23:54.720Z,101.57
2017-11-09T05:26:21.015Z,92.37
2017-11-09T05:28:47.294Z,92.13
2017-11-09T05:31:13.599Z,100.77
2017-11-09T05:33:40.605Z,87.40
2017-11-09T05:36:06.892Z,87.73
2017-11-09T05:38:34.589Z,99.43
2017-11-09T05:41:00.903Z,93.73
2017-11-09T05:43:27.922Z,97.80
2017-11-09T05:45:54.231Z,105.30
2017-11-09T05:48:20.571Z,101.77
2017-11-09T05:50:47.583Z,96.07
2017-11-09T05:53:15.394Z,93.73
2017-11-09T05:55:41.736Z,98.07
2017-11-09T05:58:08.795Z,102.43
2017-11-09T06:00:35.847Z,96.17
2017-11-09T06:03:02.893Z,99.03
2017-11-09T06:05:28.964Z,88.77
2017-11-09T06:07:55.319Z,84.03
2017-11-09T06:10:21.505Z,86.57
2017-11-09T06:12:47.823Z,81.40
2017-11-09T06:15:14.184Z,85.20
2017-11-09T06:17:40.463Z,84.23
2017-11-09T06:20:06.747Z,99.20
2017-11-09T06:22:33.051Z,77.83
2017-11-09T06:24:59.324Z,84.90
2017-11-09T06:27:27.199Z,86.80
2017-11-09T06:29:53.473Z,91.80
2017-11-09T06:32:22.531Z,92.93
2017-11-09T06:34:48.768Z,85.50
2017-11-09T06:37:15.097Z,81.27
2017-11-09T06:39:41.529Z,84.53
2017-11-09T06:42:09.006Z,86.90
2017-11-09T06:44:36.038Z,94.27
2017-11-09T06:47:02.411Z,96.60
2017-11-09T06:49:28.684Z,90.87
2017-11-09T06:51:55.139Z,93.20
2017-11-09T06:54:23.367Z,82.93
2017-11-09T06:56:49.644Z,87.90
2017-11-09T06:59:15.959Z,95.90
2017-11-09T07:01:43.008Z,85.77
2017-11-09T07:04:10.017Z,76.37
2017-11-09T07:06:36.661Z,86.17
2017-11-09T07:09:03.113Z,86.97
2017-11-09T07:11:29.399Z,79.97
2017-11-09T07:13:55.663Z,84.60
2017-11-09T07:16:21.946Z,83.00
2017-11-09T07:18:48.248Z,79.87
2017-11-09T07:21:14.527Z,77.87
2017-11-09T07:23:44.324Z,84.90
2017-11-09T07:26:10.652Z,79.20
2017-11-09T07:28:37.639Z,73.67
2017-11-09T07:31:03.915Z,88.57
2017-11-09T07:33:30.247Z,93.47
2017-11-09T07:35:57.327Z,94.67
2017-11-09T07:38:23.600Z,86.37
2017-11-09T07:40:50.643Z,81.90
2017-11-09T07:43:16.930Z,87.67
2017-11-09T07:45:44.279Z,87.57
2017-11-09T07:48:10.562Z,76.50
2017-11-09T07:50:36.907Z,88.63
2017-11-09T07:53:03.221Z,83.80
2017-11-09T07:55:29.522Z,76.57
2017-11-09T07:57:55.865Z,78.77
2017-11-09T08:00:22.145Z,73.77
2017-11-09T08:02:48.443Z,87.13
2017-11-09T08:05:15.490Z,81.73
2017-11-09T08:07:43.039Z,88.10
2017-11-09T08:10:09.333Z,80.87
2017-11-09T08:12:35.619Z,86.97
2017-11-09T08:15:01.987Z,81.10
2017-11-09T08:17:28.275Z,84.57
2017-11-09T08:19:54.671Z,79.33
2017-11-09T08:22:21.076Z,72.63
2017-11-09T08:24:50.596Z,75.63
2017-11-09T08:27:21.459Z,79.40
2017-11-09T08:29:51.463Z,78.57
2017-11-09T08:32:21.686Z,82.33
2017-11-09T08:34:47.954Z,81.43
2017-11-09T08:37:14.267Z,80.03
2017-11-09T08:39:40.603Z,77.73
2017-11-09T08:42:06.979Z,85.03
2017-11-09T08:44:33.284Z,84.87
2017-11-09T08:46:59.576Z,75.20
2017-11-09T08:49:26.114Z,79.50
2017-11-09T08:51:52.648Z,79.73
2017-11-09T08:54:18.939Z,87.87
2017-11-09T08:56:46.582Z,77.07
2017-11-09T08:59:12.880Z,81.23
2017-11-09T09:01:39.127Z,83.13
2017-11-09T09:04:05.436Z,76.33
2017-11-09T09:06:33.445Z,75.77
2017-11-09T09:08:59.759Z,65.67
2017-11-09T09:11:27.272Z,76.00
2017-11-09T09:13:53.534Z,76.77
2017-11-09T09:16:19.836Z,71.27
2017-11-09T09:18:46.184Z,62.57
2017-11-09T09:21:18.711Z,69.77
2017-11-09T09:23:45.046Z,59.17
2017-11-09T09:26:16.542Z,62.87
2017-11-09T09:28:48.711Z,65.80
2017-11-09T09:31:14.985Z,64.17
2017-11-09T09:33:53.578Z,65.60
2017-11-09T09:36:28.596Z,66.43
2017-11-09T09:39:04.943Z,56.60
2017-11-09T09:41:32.025Z,61.80
2017-11-09T09:43:59.058Z,65.83
2017-11-09T09:46:25.323Z,61.50
2017-11-09T09:48:51.612Z,56.73
2017-11-09T09:51:23.678Z,61.63
2017-11-09T09:53:50.715Z,59.43
2017-11-09T09:56:16.971Z,55.80
2017-11-09T09:58:44.033Z,52.00
2017-11-09T10:01:11.051Z,59.23
2017-11-09T10:03:37.323Z,57.73
2017-11-09T10:06:08.628Z,53.47
2017-11-09T10:08:34.890Z,59.50
2017-11-09T10:11:01.187Z,61.33
2017-11-09T10:13:28.236Z,63.63
2017-11-09T10:15:54.663Z,61.57
2017-11-09T10:18:20.947Z,63.23
2017-11-09T10:20:47.188Z,58.17
2017-11-09T10:23:15.239Z,62.50
2017-11-09T10:25:41.546Z,66.00
2017-11-09T10:28:09.720Z,61.10
2017-11-09T10:30:36.011Z,60.50
2017-11-09T10:33:02.352Z,57.47
2017-11-09T10:35:28.627Z,68.17
2017-11-09T10:37:58.647Z,60.83
2017-11-09T10:40:25.725Z,69.80
2017-11-09T10:42:52.003Z,69.93
2017-11-09T10:45:18.290Z,64.03
2017-11-09T10:47:45.407Z,65.60
2017-11-09T10:50:12.438Z,69.00
2017-11-09T10:52:42.844Z,71.30
2017-11-09T10:55:09.124Z,65.00
2017-11-09T10:57:35.547Z,73.90
2017-11-09T11:00:01.975Z,63.07
2017-11-09T11:02:28.257Z,71.10
2017-11-09T11:04:54.527Z,72.10
2017-11-09T11:07:20.800Z,60.70
2017-11-09T11:09:49.403Z,66.43
2017-11-09T11:12:15.811Z,57.83
2017-11-09T11:14:42.151Z,58.33
2017-11-09T11:17:09.148Z,59.90
2017-11-09T11:19:38.328Z,53.63
2017-11-09T11:24:37.768Z,54.77
2017-11-09T11:27:04.059Z,47.57
2017-11-09T11:29:31.100Z,44.80
2017-11-09T11:31:57.579Z,49.33
2017-11-09T11:34:24.584Z,49.80
2017-11-09T11:36:54.385Z,44.30
2017-11-09T11:39:22.504Z,51.67
2017-11-09T11:41:48.590Z,48.43
2017-11-09T11:44:14.715Z,52.23
2017-11-09T11:46:40.994Z,55.50
2017-11-09T11:49:07.162Z,42.93
2017-11-09T11:51:34.035Z,50.50
2017-11-09T11:54:03.556Z,48.33
2017-11-09T11:56:29.839Z,48.03
2017-11-09T11:58:56.209Z,45.57
2017-11-09T12:01:22.499Z,52.80
2017-11-09T12:03:50.279Z,44.20
2017-11-09T12:06:16.426Z,49.50
2017-11-09T12:08:47.559Z,48.30
2017-11-09T12:11:13.666Z,42.07
2017-11-09T12:13:40.530Z,44.93
2017-11-09T12:16:07.318Z,50.17
2017-11-09T12:18:33.382Z,50.77
2017-11-09T12:20:59.455Z,51.73
2017-11-09T12:23:27.563Z,46.20
2017-11-09T12:25:57.871Z,51.40
2017-11-09T12:28:24.155Z,47.73
2017-11-09T12:30:50.751Z,48.10
2017-11-09T12:33:17.052Z,51.77
2017-11-09T12:35:43.321Z,45.60
2017-11-09T12:38:09.690Z,53.00
2017-11-09T12:40:37.600Z,46.70
2017-11-09T12:43:03.875Z,48.33
2017-11-09T12:45:30.885Z,45.23
2017-11-09T12:47:57.206Z,50.50
2017-11-09T12:50:23.479Z,47.10
2017-11-09T12:52:49.743Z,48.30
2017-11-09T12:55:16.040Z,51.70
2017-11-09T12:57:44.067Z,48.87
2017-11-09T13:00:10.395Z,50.63
2017-11-09T13:02:36.683Z,50.70
2017-11-09T13:05:02.960Z,54.00
2017-11-09T13:07:29.499Z,46.73
2017-11-09T13:09:56.606Z,47.17
2017-11-09T13:14:55.840Z,53.13
2017-11-09T13:17:22.835Z,54.80
2017-11-09T13:19:49.255Z,50.50
2017-11-09T13:22:16.279Z,52.40
2017-11-09T13:24:42.545Z,50.40
2017-11-09T13:27:12.890Z,46.40
2017-11-09T13:29:39.316Z,48.73
2017-11-09T13:32:05.614Z,54.40
2017-11-09T13:34:32.603Z,48.27
2017-11-09T13:36:59.529Z,50.20
2017-11-09T13:39:25.809Z,47.20
2017-11-09T13:41:58.003Z,48.23
2017-11-09T13:44:24.387Z,47.23
2017-11-09T13:46:50.698Z,47.70
2017-11-09T13:49:16.962Z,54.17
2017-11-09T13:51:43.230Z,50.50
2017-11-09T13:54:09.507Z,49.30
2017-11-09T13:56:41.646Z,45.87
2017-11-09T13:59:07.789Z,50.10
2017-11-09T14:01:33.864Z,49.53
2017-11-09T14:04:00.699Z,49.80
2017-11-09T14:06:26.766Z,52.17
2017-11-09T14:08:53.592Z,52.37
2017-11-09T14:11:19.654Z,60.80
2017-11-09T14:13:47.842Z,55.67
2017-11-09T14:16:13.930Z,52.70
2017-11-09T14:18:39.986Z,54.23
2017-11-09T14:21:06.095Z,52.73
2017-11-09T14:23:33.802Z,48.10
2017-11-09T14:25:59.899Z,51.20
2017-11-09T14:28:25.953Z,54.77
2017-11-09T14:30:53.807Z,51.70
2017-11-09T14:33:20.075Z,48.90
2017-11-09T14:35:47.080Z,56.40
2017-11-09T14:38:15.243Z,53.03
2017-11-09T14:40:41.535Z,48.10
2017-11-09T14:43:07.857Z,50.27
2017-11-09T14:45:37.863Z,51.63
2017-11-09T14:48:04.878Z,55.97
2017-11-09T14:50:31.150Z,51.60
2017-11-09T14:52:58.188Z,53.23
2017-11-09T14:55:24.252Z,52.37
2017-11-09T14:57:50.511Z,48.50
2017-11-09T15:00:17.171Z,49.27
2017-11-09T15:02:45.264Z,47.80
2017-11-09T15:05:12.066Z,46.00
2017-11-09T15:07:38.147Z,52.60
2017-11-09T15:10:04.438Z,47.20
2017-11-09T15:12:30.706Z,53.67
2017-11-09T15:14:57.146Z,48.40
2017-11-09T15:17:28.539Z,58.40
2017-11-09T15:19:55.623Z,53.57
2017-11-09T15:22:21.907Z,54.40
2017-11-09T15:24:48.180Z,46.07
2017-11-09T15:27:14.458Z,56.60
2017-11-09T15:29:40.770Z,52.67
2017-11-09T15:32:13.119Z,55.53
2017-11-09T15:34:40.141Z,56.70
2017-11-09T15:37:06.492Z,53.40
2017-11-09T15:39:32.795Z,52.77
2017-11-09T15:41:59.088Z,55.57
2017-11-09T15:44:25.355Z,55.03
2017-11-09T15:46:51.666Z,52.27
2017-11-09T15:49:22.046Z,51.03
2017-11-09T15:51:49.164Z,49.53
2017-11-09T15:54:15.418Z,55.83
2017-11-09T15:56:44.198Z,54.63
2017-11-09T15:59:10.575Z,57.20
2017-11-09T16:01:36.895Z,49.72
2017-11-09T16:04:03.652Z,53.17
2017-11-09T16:06:29.976Z,48.17
2017-11-09T16:08:57.017Z,53.47
2017-11-09T16:11:23.304Z,50.63
2017-11-09T16:13:53.551Z,54.78
2017-11-09T16:16:19.870Z,60.00
2017-11-09T16:18:46.978Z,53.50
2017-11-09T16:21:13.252Z,54.38
2017-11-09T16:23:39.550Z,59.95
2017-11-09T16:26:05.838Z,54.65
2017-11-09T16:28:32.259Z,58.92
2017-11-09T16:30:58.636Z,58.72
2017-11-09T16:33:25.112Z,53.13
2017-11-09T16:35:52.147Z,59.97
2017-11-09T16:38:18.403Z,54.80
2017-11-09T16:40:44.680Z,60.17
2017-11-09T16:43:11.011Z,57.08
2017-11-09T16:45:37.408Z,64.73
2017-11-09T16:48:03.678Z,57.73
2017-11-09T16:50:29.970Z,57.70
2017-11-09T16:52:56.266Z,62.87
2017-11-09T16:55:23.369Z,59.43
2017-11-09T16:57:50.407Z,64.32
2017-11-09T17:00:16.940Z,59.30
2017-11-09T17:02:43.544Z,57.37
2017-11-09T17:05:09.704Z,67.93
2017-11-09T17:07:35.886Z,67.70
2017-11-09T17:10:01.982Z,60.40
2017-11-09T17:12:28.827Z,58.77
2017-11-09T17:14:59.892Z,67.97
2017-11-09T17:17:27.057Z,68.40
2017-11-09T17:19:53.877Z,59.58
2017-11-09T17:22:19.954Z,64.65
2017-11-09T17:24:46.828Z,65.65
2017-11-09T17:27:14.447Z,60.20
2017-11-09T17:29:41.466Z,66.85
2017-11-09T17:32:07.951Z,64.60
2017-11-09T17:34:34.044Z,60.58
2017-11-09T17:37:00.896Z,57.55
2017-11-09T17:39:27.499Z,58.17
2017-11-09T17:41:58.201Z,67.03
2017-11-09T17:44:24.569Z,55.77
2017-11-09T17:46:51.491Z,71.55
2017-11-09T17:49:17.578Z,68.25
2017-11-09T17:51:44.407Z,57.77
2017-11-09T17:54:11.941Z,57.10
2017-11-09T17:56:38.046Z,54.60
2017-11-09T17:59:08.142Z,56.28
2017-11-09T18:01:34.279Z,62.33
2017-11-09T18:04:00.363Z,61.03
2017-11-09T18:06:27.185Z,58.60
2017-11-09T18:11:49.895Z,60.53
2017-11-09T18:14:15.964Z,55.50
2017-11-09T18:16:42.860Z,53.85
2017-11-09T18:19:09.031Z,55.53
2017-11-09T18:21:35.711Z,57.30
2017-11-09T18:24:01.759Z,53.67
2017-11-09T18:26:28.552Z,54.43
2017-11-09T18:28:54.617Z,54.47
2017-11-09T18:31:20.663Z,56.17
2017-11-09T18:33:49.463Z,56.30
2017-11-09T18:36:15.500Z,61.13
2017-11-09T18:38:43.498Z,49.10
2017-11-09T18:41:09.542Z,57.40
2017-11-09T18:43:35.706Z,50.35
2017-11-09T18:46:02.805Z,54.47
2017-11-09T18:48:29.002Z,51.70
2017-11-09T18:50:55.069Z,51.03
2017-11-09T18:53:21.123Z,51.77
2017-11-09T18:55:47.652Z,60.50
2017-11-09T18:58:15.669Z,51.37
2017-11-09T19:00:42.243Z,56.20
2017-11-09T19:03:08.407Z,62.00
2017-11-09T19:05:35.232Z,55.90
2017-11-09T19:10:35.875Z,55.10
2017-11-09T19:13:02.813Z,51.27
2017-11-09T19:15:28.951Z,56.27
2017-11-09T19:17:55.866Z,50.50
2017-11-09T19:20:21.944Z,55.13
2017-11-09T19:22:48.920Z,49.70
2017-11-09T19:25:15.039Z,49.27
2017-11-09T19:27:41.079Z,56.50
2017-11-09T19:30:07.883Z,53.67
2017-11-09T19:32:34.879Z,61.77
2017-11-09T19:35:00.955Z,54.90
2017-11-09T19:37:27.100Z,59.03
2017-11-09T19:39:53.911Z,55.03
2017-11-09T19:42:19.996Z,50.20
2017-11-09T19:44:46.804Z,55.00
2017-11-09T19:47:12.859Z,50.55
2017-11-09T19:49:38.931Z,50.13
2017-11-09T19:52:05.764Z,52.17
2017-11-09T19:54:32.919Z,51.90
2017-11-09T19:56:58.980Z,55.80
2017-11-09T19:59:25.747Z,54.63
2017-11-09T20:01:52.542Z,53.07
2017-11-09T20:04:18.608Z,50.57
2017-11-09T20:06:44.770Z,47.10
2017-11-09T20:09:11.560Z,57.80
2017-11-09T20:11:37.630Z,51.77
2017-11-09T20:14:03.691Z,56.27
2017-11-09T20:16:30.483Z,56.17
2017-11-09T20:18:56.516Z,52.13
2017-11-09T20:21:22.557Z,51.83
2017-11-09T20:23:48.604Z,55.53
2017-11-09T20:26:14.659Z,53.60
2017-11-09T20:28:40.731Z,61.03
2017-11-09T20:31:07.401Z,54.43
2017-11-09T20:33:34.201Z,49.60
2017-11-09T20:36:00.275Z,55.17
2017-11-09T20:38:27.143Z,50.67
2017-11-09T20:40:53.972Z,52.23
2017-11-09T20:43:22.912Z,50.63
2017-11-09T20:45:48.999Z,45.70
2017-11-09T20:48:15.107Z,52.60
2017-11-09T20:50:41.179Z,47.97
2017-11-09T20:53:07.227Z,49.20
2017-11-09T20:55:33.289Z,46.73
2017-11-09T20:57:59.343Z,50.00
2017-11-09T21:00:25.403Z,48.37
2017-11-09T21:02:51.558Z,49.40
2017-11-09T21:05:17.615Z,48.45
2017-11-09T21:07:43.658Z,51.20
2017-11-09T21:10:09.857Z,51.87
2017-11-09T21:12:35.894Z,50.93
2017-11-09T21:15:03.600Z,40.03
2017-11-09T21:17:30.395Z,42.07
2017-11-09T21:19:56.499Z,48.67
2017-11-09T21:22:22.531Z,47.87
2017-11-09T21:24:48.588Z,47.77
2017-11-09T21:27:14.651Z,48.75
2017-11-09T21:29:41.427Z,55.20
2017-11-09T21:32:07.471Z,55.40
2017-11-09T21:34:33.531Z,56.83
2017-11-09T21:36:59.607Z,56.75
2017-11-09T21:39:26.388Z,57.15
2017-11-09T21:41:52.439Z,52.87
2017-11-09T21:44:18.469Z,50.77
2017-11-09T21:46:44.515Z,51.30
2017-11-09T21:49:10.603Z,48.87
2017-11-09T21:51:37.414Z,52.47
2017-11-09T21:54:03.752Z,54.88
2017-11-09T21:56:30.617Z,53.00
2017-11-09T21:58:56.770Z,49.63
2017-11-09T22:01:22.816Z,48.42
2017-11-09T22:03:50.402Z,52.33
2017-11-09T22:06:16.460Z,49.63
2017-11-09T22:08:43.259Z,38.88
2017-11-09T22:11:09.350Z,40.75
2017-11-09T22:13:35.870Z,43.43
2017-11-09T22:16:01.931Z,42.25
2017-11-09T22:18:28.731Z,44.83
2017-11-09T22:20:54.818Z,46.35
2017-11-09T22:23:20.989Z,41.50
2017-11-09T22:25:47.792Z,47.97
2017-11-09T22:30:45.017Z,39.50
2017-11-09T22:33:13.502Z,44.30
2017-11-09T22:35:39.840Z,42.57
2017-11-09T22:38:06.628Z,39.38
2017-11-09T22:40:32.718Z,38.50
2017-11-09T22:42:58.885Z,37.85
2017-11-09T22:45:24.964Z,43.35
2017-11-09T22:47:51.162Z,37.88
2017-11-09T22:50:17.232Z,46.90
2017-11-09T22:52:43.331Z,45.15
2017-11-09T22:55:09.419Z,44.93
2017-11-09T22:57:35.474Z,39.73
2017-11-09T23:00:01.563Z,46.47
2017-11-09T23:02:28.351Z,45.38
2017-11-09T23:04:54.475Z,45.72
2017-11-09T23:07:21.679Z,49.30
2017-11-09T23:09:47.740Z,45.30
2017-11-09T23:12:13.835Z,48.87
2017-11-09T23:14:39.891Z,48.50
2017-11-09T23:17:05.961Z,44.58
2017-11-09T23:19:32.132Z,43.63
2017-11-09T23:21:58.212Z,37.72
2017-11-09T23:24:24.332Z,46.53
2017-11-09T23:26:50.413Z,43.28
2017-11-09T23:29:16.555Z,46.78
2017-11-09T23:31:46.706Z,47.40
2017-11-09T23:34:12.748Z,44.78
2017-11-09T23:36:38.834Z,44.40
2017-11-09T23:39:04.965Z,40.90
2017-11-09T23:41:31.107Z,45.08
2017-11-09T23:43:57.152Z,41.25
2017-11-09T23:46:23.274Z,39.35
2017-11-09T23:48:49.342Z,34.97
2017-11-09T23:51:15.402Z,43.03
2017-11-09T23:53:41.503Z,44.72
2017-11-09T23:56:07.600Z,39.30
2017-11-09T23:58:34.406Z,35.25
